createdAt,value
2018-06-02T01:11:42.980Z,4.43
2018-06-02T01:14:11.823Z,3.93
2018-06-02T01:16:40.658Z,4.32
2018-06-02T01:19:09.503Z,5.43
2018-06-02T01:21:38.338Z,5.03
2018-06-02T01:24:07.795Z,4.60
2018-06-02T01:26:36.643Z,5.68
2018-06-02T01:29:06.230Z,3.90
2018-06-02T01:31:35.073Z,6.80
2018-06-02T01:34:03.915Z,4.72
2018-06-02T01:36:32.747Z,5.70
2018-06-02T01:39:01.589Z,4.70
2018-06-02T01:41:30.426Z,4.10
2018-06-02T01:43:59.260Z,6.13
2018-06-02T01:46:28.096Z,5.70
2018-06-02T01:48:56.941Z,7.20
2018-06-02T01:51:25.780Z,4.63
2018-06-02T01:53:54.624Z,4.30
2018-06-02T01:56:23.475Z,5.23
2018-06-02T01:58:52.309Z,4.77
2018-06-02T02:01:21.204Z,4.37
2018-06-02T02:03:50.009Z,5.93
2018-06-02T02:06:18.847Z,4.87
2018-06-02T02:08:47.720Z,5.90
2018-06-02T02:11:16.511Z,6.90
2018-06-02T02:13:45.348Z,4.80
2018-06-02T02:16:14.924Z,8.37
2018-06-02T02:18:43.754Z,4.57
2018-06-02T02:21:12.598Z,5.93
2018-06-02T02:23:41.436Z,5.03
2018-06-02T02:26:11.011Z,6.47
2018-06-02T02:28:39.845Z,5.93
2018-06-02T02:31:08.688Z,4.83
2018-06-02T02:33:37.538Z,7.07
2018-06-02T02:36:06.374Z,6.35
2018-06-02T02:38:35.215Z,5.33
2018-06-02T02:41:04.069Z,5.20
2018-06-02T02:43:33.640Z,4.43
2018-06-02T02:46:02.474Z,5.40
2018-06-02T02:48:31.320Z,4.87
2018-06-02T02:51:00.158Z,4.93
2018-06-02T02:53:28.988Z,4.37
2018-06-02T02:55:57.832Z,6.03
2018-06-02T02:58:26.683Z,5.37
2018-06-02T03:00:55.533Z,5.40
2018-06-02T03:03:24.367Z,4.70
2018-06-02T03:05:53.222Z,4.90
2018-06-02T03:08:22.070Z,5.53
2018-06-02T03:10:50.923Z,11.20
2018-06-02T03:13:19.774Z,11.53
2018-06-02T03:15:48.619Z,8.87
2018-06-02T03:18:17.468Z,10.33
2018-06-02T03:20:46.302Z,19.60
2018-06-02T03:23:15.145Z,33.43
2018-06-02T03:25:43.987Z,23.17
2018-06-02T03:28:12.838Z,20.80
2018-06-02T03:30:41.687Z,17.80
2018-06-02T03:33:10.537Z,9.70
2018-06-02T03:35:39.373Z,8.17
2018-06-02T03:38:08.215Z,6.40
2018-06-02T03:40:37.071Z,7.47
2018-06-02T03:43:05.908Z,7.13
2018-06-02T03:45:35.492Z,8.77
2018-06-02T03:48:04.333Z,14.00
2018-06-02T03:50:33.185Z,10.17
2018-06-02T03:53:02.029Z,9.43
2018-06-02T03:55:30.871Z,7.67
2018-06-02T03:57:59.736Z,7.50
2018-06-02T04:00:28.573Z,8.90
2018-06-02T04:02:57.408Z,7.23
2018-06-02T04:05:26.238Z,8.60
2018-06-02T04:07:55.827Z,9.10
2018-06-02T04:10:24.657Z,6.33
2018-06-02T04:12:53.500Z,6.00
2018-06-02T04:15:22.346Z,7.20
2018-06-02T04:17:51.187Z,5.37
2018-06-02T04:20:20.046Z,9.03
2018-06-02T04:22:48.882Z,7.55
2018-06-02T04:25:18.455Z,8.37
2018-06-02T04:27:47.316Z,9.00
2018-06-02T04:30:16.164Z,10.07
2018-06-02T04:32:45.004Z,7.10
2018-06-02T04:35:13.845Z,7.53
2018-06-02T04:37:42.689Z,7.60
2018-06-02T04:40:11.528Z,6.97
2018-06-02T04:42:40.361Z,9.10
2018-06-02T04:45:09.207Z,11.30
2018-06-02T04:47:38.059Z,7.87
2018-06-02T04:50:06.891Z,8.13
2018-06-02T04:52:35.730Z,8.97
2018-06-02T04:55:04.579Z,11.93
2018-06-02T04:57:33.421Z,8.00
2018-06-02T05:00:02.245Z,9.17
2018-06-02T05:02:31.090Z,8.60
2018-06-02T05:04:59.931Z,8.53
2018-06-02T05:07:28.984Z,7.83
2018-06-02T05:09:57.715Z,8.55
2018-06-02T05:12:26.557Z,7.33
2018-06-02T05:14:55.399Z,8.10
2018-06-02T05:17:24.231Z,8.17
2018-06-02T05:19:53.084Z,8.63
2018-06-02T05:22:21.915Z,8.43
2018-06-02T05:24:50.752Z,8.13
2018-06-02T05:27:19.591Z,9.77
2018-06-02T05:29:49.168Z,7.40
2018-06-02T05:32:18.016Z,11.57
2018-06-02T05:34:46.848Z,7.87
2018-06-02T05:37:15.696Z,8.03
2018-06-02T05:39:44.546Z,9.13
2018-06-02T05:42:13.378Z,8.07
2018-06-02T05:44:42.218Z,9.70
2018-06-02T05:47:11.060Z,10.23
2018-06-02T05:49:39.906Z,8.43
2018-06-02T05:52:08.762Z,8.80
2018-06-02T05:54:37.650Z,7.33
2018-06-02T05:57:06.434Z,7.90
2018-06-02T05:59:35.274Z,8.02
2018-06-02T06:02:04.857Z,7.50
2018-06-02T06:04:33.689Z,7.90
2018-06-02T06:07:02.519Z,8.10
2018-06-02T06:09:31.368Z,7.47
2018-06-02T06:12:00.216Z,9.40
2018-06-02T06:14:29.045Z,8.53
2018-06-02T06:16:57.883Z,7.43
2018-06-02T06:19:26.774Z,10.00
2018-06-02T06:21:55.627Z,7.50
2018-06-02T06:24:24.475Z,8.77
2018-06-02T06:26:53.339Z,8.00
2018-06-02T06:29:22.148Z,8.23
2018-06-02T06:31:51.732Z,12.13
2018-06-02T06:34:20.579Z,13.37
2018-06-02T06:36:49.411Z,10.57
2018-06-02T06:39:18.262Z,10.93
2018-06-02T06:41:47.115Z,14.27
2018-06-02T06:44:16.708Z,16.53
2018-06-02T06:46:45.564Z,14.37
2018-06-02T06:49:14.401Z,14.77
2018-06-02T06:51:43.245Z,15.47
2018-06-02T06:54:12.092Z,12.77
2018-06-02T06:56:41.691Z,13.87
2018-06-02T06:59:10.529Z,12.47
2018-06-02T07:01:39.376Z,13.73
2018-06-02T07:04:08.218Z,12.40
2018-06-02T07:06:37.069Z,11.33
2018-06-02T07:09:06.020Z,10.70
2018-06-02T07:11:34.869Z,10.93
2018-06-02T07:14:03.716Z,11.40
2018-06-02T07:16:33.299Z,11.87
2018-06-02T07:19:02.140Z,13.17
2018-06-02T07:21:30.998Z,13.87
2018-06-02T07:23:59.839Z,15.23
2018-06-02T07:26:28.682Z,15.73
2018-06-02T07:28:57.529Z,16.92
2018-06-02T07:31:26.677Z,14.55
2018-06-02T07:33:55.527Z,9.93
2018-06-02T07:36:24.375Z,11.40
2018-06-02T07:38:53.232Z,10.18
2018-06-02T07:41:22.839Z,13.75
2018-06-02T07:43:52.437Z,10.68
2018-06-02T07:46:22.024Z,15.23
2018-06-02T07:48:50.873Z,15.02
2018-06-02T07:51:19.725Z,15.35
2018-06-02T07:53:48.565Z,15.00
2018-06-02T07:56:17.405Z,17.45
2018-06-02T07:58:46.271Z,17.08
2018-06-02T08:01:15.147Z,20.83
2018-06-02T08:03:43.988Z,16.15
2018-06-02T08:06:12.849Z,13.85
2018-06-02T08:08:41.723Z,11.35
2018-06-02T08:11:10.561Z,8.95
2018-06-02T08:13:40.138Z,8.32
2018-06-02T08:16:09.001Z,8.43
2018-06-02T08:18:37.851Z,9.02
2018-06-02T08:21:06.707Z,10.05
2018-06-02T08:23:35.554Z,7.97
2018-06-02T08:26:04.443Z,8.00
2018-06-02T08:28:33.235Z,5.07
2018-06-02T08:31:02.077Z,6.60
2018-06-02T08:33:30.967Z,4.70
2018-06-02T08:35:59.785Z,5.00
2018-06-02T08:38:28.624Z,7.23
2018-06-02T08:40:57.475Z,5.40
2018-06-02T08:43:26.306Z,5.30
2018-06-02T08:45:55.155Z,8.73
2018-06-02T08:48:23.997Z,4.12
2018-06-02T08:50:53.577Z,5.43
2018-06-02T08:53:22.420Z,4.03
2018-06-02T08:55:51.256Z,5.25
2018-06-02T08:58:20.090Z,4.55
2018-06-02T09:00:48.932Z,4.20
2018-06-02T09:03:17.764Z,5.20
2018-06-02T09:05:47.352Z,5.10
2018-06-02T09:08:16.189Z,4.78
2018-06-02T09:10:45.036Z,3.97
2018-06-02T09:13:13.887Z,3.45
2018-06-02T09:15:42.731Z,4.43
2018-06-02T09:18:11.567Z,4.40
2018-06-02T09:20:40.408Z,3.78
2018-06-02T09:23:09.255Z,2.97
2018-06-02T09:25:38.827Z,3.22
2018-06-02T09:28:07.663Z,3.50
2018-06-02T09:30:36.504Z,3.78
2018-06-02T09:33:05.340Z,4.00
2018-06-02T09:35:34.191Z,3.40
2018-06-02T09:38:03.039Z,5.97
2018-06-02T09:40:32.625Z,3.78
2018-06-02T09:43:01.456Z,3.95
2018-06-02T09:45:30.304Z,5.07
2018-06-02T09:47:59.741Z,4.03
2018-06-02T09:50:28.583Z,4.47
2018-06-02T09:52:57.440Z,4.05
2018-06-02T09:55:26.524Z,5.15
2018-06-02T09:57:55.140Z,4.15
2018-06-02T10:00:25.839Z,4.32
2018-06-02T10:02:54.683Z,3.78
2018-06-02T10:05:23.523Z,3.80
2018-06-02T10:07:52.369Z,3.97
2018-06-02T10:10:21.215Z,4.00
2018-06-02T10:12:50.061Z,4.40
2018-06-02T10:15:18.908Z,3.72
2018-06-02T10:17:47.749Z,3.80
2018-06-02T10:20:16.603Z,4.95
2018-06-02T10:22:45.447Z,4.05
2018-06-02T10:25:14.287Z,3.42
2018-06-02T10:27:43.137Z,3.53
2018-06-02T10:30:11.976Z,3.45
2018-06-02T10:32:40.817Z,3.37
2018-06-02T10:35:09.654Z,3.85
2018-06-02T10:37:38.495Z,4.45
2018-06-02T10:40:07.334Z,3.92
2018-06-02T10:42:36.924Z,4.07
2018-06-02T10:45:05.775Z,3.10
2018-06-02T10:47:34.611Z,3.72
2018-06-02T10:50:03.469Z,3.65
2018-06-02T10:52:32.314Z,3.17
2018-06-02T10:55:01.152Z,4.12
2018-06-02T10:57:30.007Z,3.62
2018-06-02T10:59:58.851Z,3.53
2018-06-02T11:02:27.708Z,3.15
2018-06-02T11:04:56.542Z,3.35
2018-06-02T11:07:25.387Z,3.20
2018-06-02T11:09:54.230Z,4.45
2018-06-02T11:12:23.076Z,3.53
2018-06-02T11:14:51.915Z,3.25
2018-06-02T11:17:20.760Z,3.05
2018-06-02T11:19:49.604Z,4.43
2018-06-02T11:22:18.436Z,2.50
2018-06-02T11:24:47.278Z,4.10
2018-06-02T11:27:16.120Z,2.47
2018-06-02T11:29:44.969Z,3.08
2018-06-02T11:32:13.808Z,2.90
2018-06-02T11:34:42.667Z,3.17
2018-06-02T11:37:11.507Z,3.85
2018-06-02T11:39:40.350Z,3.12
2018-06-02T11:42:09.192Z,3.15
2018-06-02T11:44:38.067Z,4.90
2018-06-02T11:47:07.653Z,2.67
2018-06-02T11:49:36.496Z,4.93
2018-06-02T11:52:05.346Z,3.45
2018-06-02T11:54:34.183Z,3.33
2018-06-02T11:57:03.913Z,3.30
2018-06-02T11:59:32.797Z,2.78
2018-06-02T12:02:01.638Z,2.70
2018-06-02T12:04:30.467Z,2.78
2018-06-02T12:06:59.869Z,2.60
2018-06-02T12:09:28.715Z,2.92
2018-06-02T12:11:57.558Z,2.50
2018-06-02T12:14:26.402Z,2.25
2018-06-02T12:16:55.989Z,2.40
2018-06-02T12:19:24.864Z,5.43
2018-06-02T12:21:53.745Z,3.22
2018-06-02T12:24:22.549Z,2.80
2018-06-02T12:26:51.396Z,2.87
2018-06-02T12:29:20.228Z,4.25
2018-06-02T12:31:49.077Z,2.80
2018-06-02T12:34:17.911Z,2.70
2018-06-02T12:36:46.754Z,5.40
2018-06-02T12:39:15.592Z,3.40
2018-06-02T12:41:44.443Z,3.08
2018-06-02T12:44:13.276Z,3.12
2018-06-02T12:46:42.882Z,2.50
2018-06-02T12:49:11.736Z,3.33
2018-06-02T12:51:40.573Z,2.62
2018-06-02T12:54:10.160Z,3.30
2018-06-02T12:56:39.014Z,3.17
2018-06-02T12:59:08.161Z,3.55
2018-06-02T13:01:37.764Z,3.40
2018-06-02T13:04:07.385Z,4.22
2018-06-02T13:06:36.240Z,2.83
2018-06-02T13:09:05.993Z,2.90
2018-06-02T13:11:34.830Z,2.50
2018-06-02T13:14:03.685Z,2.83
2018-06-02T13:16:32.536Z,3.40
2018-06-02T13:19:02.132Z,2.70
2018-06-02T13:21:31.016Z,3.30
2018-06-02T13:23:59.824Z,4.25
2018-06-02T13:26:28.667Z,2.78
2018-06-02T13:28:57.510Z,6.12
2018-06-02T13:31:26.347Z,2.97
2018-06-02T13:33:55.187Z,4.20
2018-06-02T13:36:24.015Z,3.00
2018-06-02T13:38:53.040Z,3.83
2018-06-02T13:41:22.015Z,3.45
2018-06-02T13:43:50.751Z,3.97
2018-06-02T13:46:19.592Z,2.90
2018-06-02T13:48:48.427Z,3.17
2018-06-02T13:51:17.282Z,4.35
2018-06-02T13:53:46.287Z,2.75
2018-06-02T13:56:15.871Z,2.92
2018-06-02T13:58:44.720Z,3.27
2018-06-02T14:01:13.560Z,2.80
2018-06-02T14:03:42.398Z,4.15
2018-06-02T14:06:11.243Z,4.25
2018-06-02T14:08:40.083Z,2.95
2018-06-02T14:11:08.949Z,2.85
2018-06-02T14:13:37.791Z,3.20
2018-06-02T14:16:06.635Z,3.58
2018-06-02T14:18:35.536Z,3.25
2018-06-02T14:21:04.343Z,4.60
2018-06-02T14:23:33.184Z,3.00
2018-06-02T14:26:02.784Z,3.70
2018-06-02T14:28:31.618Z,3.20
2018-06-02T14:31:00.464Z,4.85
2018-06-02T14:33:30.043Z,3.10
2018-06-02T14:35:58.891Z,4.43
2018-06-02T14:38:27.728Z,3.90
2018-06-02T14:40:56.580Z,2.90
2018-06-02T14:43:25.429Z,3.37
2018-06-02T14:45:54.281Z,4.75
2018-06-02T14:48:23.123Z,3.53
2018-06-02T14:50:51.968Z,4.65
2018-06-02T14:53:20.804Z,3.95
2018-06-02T14:55:49.680Z,3.35
2018-06-02T14:58:18.486Z,3.72
2018-06-02T15:00:47.333Z,4.85
2018-06-02T15:03:16.259Z,4.87
2018-06-02T15:05:45.065Z,3.42
2018-06-02T15:08:13.907Z,4.00
2018-06-02T15:10:42.754Z,3.53
2018-06-02T15:13:11.588Z,3.25
2018-06-02T15:15:41.165Z,5.10
2018-06-02T15:18:10.014Z,6.65
2018-06-02T15:20:38.855Z,3.22
2018-06-02T15:23:07.706Z,3.33
2018-06-02T15:25:36.556Z,3.95
2018-06-02T15:28:06.265Z,3.60
2018-06-02T15:30:34.976Z,4.37
2018-06-02T15:33:03.831Z,3.22
2018-06-02T15:35:33.401Z,3.75
2018-06-02T15:38:02.246Z,4.28
2018-06-02T15:40:31.092Z,4.35
2018-06-02T15:42:59.940Z,3.72
2018-06-02T15:45:28.774Z,3.33
2018-06-02T15:47:57.615Z,4.25
2018-06-02T15:50:26.459Z,4.00
2018-06-02T15:52:55.303Z,3.25
2018-06-02T15:55:24.152Z,4.18
2018-06-02T15:57:52.991Z,3.62
2018-06-02T16:00:21.825Z,5.65
2018-06-02T16:02:50.663Z,4.03
2018-06-02T16:05:19.524Z,4.70
2018-06-02T16:07:49.100Z,5.32
2018-06-02T16:10:17.933Z,4.80
2018-06-02T16:12:46.814Z,5.32
2018-06-02T16:15:15.635Z,3.95
2018-06-02T16:17:44.474Z,4.70
2018-06-02T16:20:13.321Z,4.57
2018-06-02T16:22:42.203Z,4.70
2018-06-02T16:25:11.745Z,4.03
2018-06-02T16:27:41.180Z,5.22
2018-06-02T16:30:10.027Z,4.55
2018-06-02T16:32:38.870Z,3.85
2018-06-02T16:35:07.712Z,3.53
2018-06-02T16:37:36.555Z,4.28
2018-06-02T16:40:05.467Z,9.00
2018-06-02T16:42:34.230Z,4.78
2018-06-02T16:45:03.059Z,6.15
2018-06-02T16:47:31.902Z,6.32
2018-06-02T16:50:00.754Z,4.57
2018-06-02T16:52:29.602Z,4.60
2018-06-02T16:54:58.457Z,4.20
2018-06-02T16:57:28.098Z,4.65
2018-06-02T16:59:56.891Z,5.43
2018-06-02T17:02:25.729Z,6.20
2018-06-02T17:04:55.311Z,6.05
2018-06-02T17:07:24.143Z,4.45
2018-06-02T17:09:52.983Z,4.18
2018-06-02T17:12:21.826Z,2.97
2018-06-02T17:14:51.408Z,3.55
2018-06-02T17:17:21.015Z,3.22
2018-06-02T17:19:50.622Z,4.90
2018-06-02T17:22:19.442Z,5.07
2018-06-02T17:24:48.277Z,3.67
2018-06-02T17:27:17.120Z,4.07
2018-06-02T17:29:45.958Z,4.40
2018-06-02T17:32:14.813Z,4.07
2018-06-02T17:34:43.655Z,4.20
2018-06-02T17:37:12.495Z,4.30
2018-06-02T17:39:41.335Z,4.15
2018-06-02T17:42:10.193Z,3.70
2018-06-02T17:44:39.033Z,4.32
2018-06-02T17:47:08.717Z,4.28
2018-06-02T17:49:38.467Z,5.53
2018-06-02T17:52:07.313Z,4.15
2018-06-02T17:54:36.152Z,4.70
2018-06-02T17:57:04.999Z,5.20
2018-06-02T17:59:33.882Z,3.60
2018-06-02T18:02:02.693Z,4.03
2018-06-02T18:04:31.580Z,5.40
2018-06-02T18:07:00.373Z,4.37
2018-06-02T18:09:29.209Z,3.22
2018-06-02T18:11:58.062Z,3.10
2018-06-02T18:14:26.916Z,2.97
2018-06-02T18:16:55.739Z,3.37
2018-06-02T18:19:24.588Z,4.12
2018-06-02T18:21:53.423Z,2.85
2018-06-02T18:24:22.284Z,2.75
2018-06-02T18:26:51.859Z,3.22
2018-06-02T18:29:20.734Z,3.10
2018-06-02T18:31:49.581Z,2.65
2018-06-02T18:34:19.159Z,3.10
2018-06-02T18:36:48.037Z,2.90
2018-06-02T18:39:16.851Z,2.72
2018-06-02T18:41:45.687Z,3.08
2018-06-02T18:44:14.527Z,2.95
2018-06-02T18:46:44.123Z,2.72
2018-06-02T18:49:12.968Z,2.87
2018-06-02T18:51:41.815Z,3.17
2018-06-02T18:54:11.431Z,4.07
2018-06-02T18:56:41.022Z,3.93
2018-06-02T18:59:10.621Z,5.00
2018-06-02T19:01:39.457Z,3.97
2018-06-02T19:04:08.319Z,3.00
2018-06-02T19:06:37.163Z,2.85
2018-06-02T19:09:06.009Z,3.17
2018-06-02T19:11:34.846Z,2.53
2018-06-02T19:14:03.687Z,2.30
2018-06-02T19:16:32.523Z,3.15
2018-06-02T19:19:01.356Z,2.95
2018-06-02T19:21:30.935Z,2.50
2018-06-02T19:23:59.785Z,2.53
2018-06-02T19:26:28.608Z,2.90
2018-06-02T19:28:57.442Z,3.20
2018-06-02T19:31:26.292Z,4.45
2018-06-02T19:33:55.137Z,2.90
2018-06-02T19:36:23.991Z,2.62
2018-06-02T19:38:53.577Z,3.17
2018-06-02T19:41:22.466Z,2.50
2018-06-02T19:43:51.312Z,3.28
2018-06-02T19:46:20.175Z,3.12
2018-06-02T19:48:49.759Z,3.30
2018-06-02T19:51:18.916Z,2.65
2018-06-02T19:53:47.766Z,2.62
2018-06-02T19:56:16.714Z,3.80
2018-06-02T19:58:45.558Z,4.30
2018-06-02T20:01:14.413Z,2.03
2018-06-02T20:03:43.266Z,4.68
2018-06-02T20:06:12.118Z,4.12
2018-06-02T20:08:40.959Z,2.90
2018-06-02T20:11:12.522Z,3.58
2018-06-02T20:13:38.864Z,4.00
2018-06-02T20:16:08.296Z,2.75
2018-06-02T20:18:37.129Z,2.97
2018-06-02T20:21:06.008Z,3.15
2018-06-02T20:23:35.561Z,3.85
2018-06-02T20:26:05.159Z,2.62
2018-06-02T20:28:34.005Z,2.92
2018-06-02T20:31:02.863Z,3.03
2018-06-02T20:33:32.447Z,4.22
2018-06-02T20:36:01.292Z,4.32
2018-06-02T20:38:30.140Z,3.30
2018-06-02T20:40:59.874Z,5.70
2018-06-02T20:43:28.715Z,3.15
2018-06-02T20:45:58.140Z,3.72
2018-06-02T20:48:28.777Z,4.20
2018-06-02T20:50:57.615Z,4.47
2018-06-02T20:53:26.464Z,4.68
2018-06-02T20:55:55.305Z,3.12
2018-06-02T20:58:24.150Z,4.20
2018-06-02T21:00:52.998Z,6.10
2018-06-02T21:03:21.874Z,3.42
2018-06-02T21:05:51.279Z,4.07
2018-06-02T21:08:20.119Z,3.30
2018-06-02T21:10:48.968Z,4.62
2018-06-02T21:13:17.930Z,3.30
2018-06-02T21:15:46.684Z,3.28
2018-06-02T21:18:15.519Z,5.20
2018-06-02T21:20:44.361Z,4.22
2018-06-02T21:23:13.222Z,3.67
2018-06-02T21:25:42.059Z,4.62
2018-06-02T21:28:10.912Z,3.40
2018-06-02T21:30:40.488Z,3.92
2018-06-02T21:33:09.376Z,3.45
2018-06-02T21:35:38.313Z,3.50
2018-06-02T21:38:07.159Z,3.65
2018-06-02T21:40:35.997Z,7.10
2018-06-02T21:43:04.860Z,3.58
2018-06-02T21:45:33.729Z,3.85
2018-06-02T21:48:02.540Z,4.75
2018-06-02T21:50:32.141Z,4.95
2018-06-02T21:53:00.971Z,3.42
2018-06-02T21:55:29.810Z,4.75
2018-06-02T21:57:58.651Z,3.55
2018-06-02T22:00:27.495Z,3.53
2018-06-02T22:02:56.325Z,4.45
2018-06-02T22:05:25.274Z,4.62
2018-06-02T22:07:54.130Z,3.25
2018-06-02T22:10:22.978Z,4.22
2018-06-02T22:12:52.550Z,2.75
2018-06-02T22:15:21.436Z,3.37
2018-06-02T22:17:50.310Z,3.83
2018-06-02T22:20:19.144Z,3.75
2018-06-02T22:22:47.982Z,3.47
2018-06-02T22:25:16.828Z,3.58
2018-06-02T22:27:45.686Z,3.62
2018-06-02T22:30:14.530Z,5.40
2018-06-02T22:32:43.375Z,4.28
2018-06-02T22:35:12.223Z,3.47
2018-06-02T22:37:41.063Z,3.95
2018-06-02T22:40:09.915Z,5.10
2018-06-02T22:42:38.759Z,4.72
2018-06-02T22:45:08.352Z,4.72
2018-06-02T22:47:37.200Z,3.40
2018-06-02T22:50:06.072Z,3.60
2018-06-02T22:52:34.881Z,6.37
2018-06-02T22:55:03.787Z,5.05
2018-06-02T22:57:32.605Z,5.90
2018-06-02T23:00:01.459Z,4.95
2018-06-02T23:02:30.324Z,4.72
2018-06-02T23:04:59.218Z,4.62
2018-06-02T23:07:28.049Z,5.18
2018-06-02T23:09:56.901Z,5.82
2018-06-02T23:12:25.733Z,5.32
2018-06-02T23:14:54.583Z,6.03
2018-06-02T23:17:23.428Z,4.20
2018-06-02T23:19:53.003Z,5.78
2018-06-02T23:22:34.421Z,4.25
2018-06-02T23:25:03.285Z,4.28
2018-06-02T23:27:32.126Z,5.47
2018-06-02T23:30:00.974Z,4.65
2018-06-02T23:32:30.549Z,6.47
2018-06-02T23:34:59.409Z,4.40
2018-06-02T23:37:28.246Z,4.47
2018-06-02T23:39:57.671Z,3.53
2018-06-02T23:42:26.503Z,5.22
2018-06-02T23:44:55.345Z,3.50
2018-06-02T23:47:24.933Z,4.12
2018-06-02T23:49:53.786Z,4.32
2018-06-02T23:52:22.625Z,4.07
2018-06-02T23:54:52.209Z,3.45
2018-06-02T23:57:21.044Z,5.40
2018-06-02T23:59:49.896Z,5.03
